sensor_id;sensor_type;location;lat;lon;timestamp;P1;durP1;ratioP1;P2;durP2;ratioP2
69534;SDS011;56754;51.568;5.048;2023-03-19T00:01:17;3.07;;;0.90;;
69534;SDS011;56754;51.568;5.048;2023-03-19T00:03:43;4.90;;;0.80;;
69534;SDS011;56754;51.568;5.048;2023-03-19T00:06:08;2.80;;;0.80;;
69534;SDS011;56754;51.568;5.048;2023-03-19T00:08:33;4.07;;;0.90;;
69534;SDS011;56754;51.568;5.048;2023-03-19T00:11:04;3.07;;;0.70;;
69534;SDS011;56754;51.568;5.048;2023-03-19T00:13:30;2.63;;;0.70;;
69534;SDS011;56754;51.568;5.048;2023-03-19T00:15:55;2.70;;;0.80;;
69534;SDS011;56754;51.568;5.048;2023-03-19T00:18:21;2.97;;;0.77;;
69534;SDS011;56754;51.568;5.048;2023-03-19T00:20:46;2.37;;;0.70;;
69534;SDS011;56754;51.568;5.048;2023-03-19T00:23:11;1.97;;;0.73;;
69534;SDS011;56754;51.568;5.048;2023-03-19T00:25:36;3.33;;;1.05;;
69534;SDS011;56754;51.568;5.048;2023-03-19T00:28:02;3.17;;;0.90;;
69534;SDS011;56754;51.568;5.048;2023-03-19T00:30:27;3.00;;;0.73;;
69534;SDS011;56754;51.568;5.048;2023-03-19T00:32:52;3.30;;;0.90;;
69534;SDS011;56754;51.568;5.048;2023-03-19T00:35:18;3.83;;;1.00;;
69534;SDS011;56754;51.568;5.048;2023-03-19T00:37:43;3.27;;;0.80;;
69534;SDS011;56754;51.568;5.048;2023-03-19T00:40:08;5.03;;;1.20;;
69534;SDS011;56754;51.568;5.048;2023-03-19T00:42:34;3.45;;;1.00;;
69534;SDS011;56754;51.568;5.048;2023-03-19T00:45:00;2.53;;;0.70;;
69534;SDS011;56754;51.568;5.048;2023-03-19T00:47:25;3.53;;;0.87;;
69534;SDS011;56754;51.568;5.048;2023-03-19T00:49:50;4.00;;;1.05;;
69534;SDS011;56754;51.568;5.048;2023-03-19T00:52:15;2.63;;;0.80;;
69534;SDS011;56754;51.568;5.048;2023-03-19T00:54:41;3.07;;;1.00;;
69534;SDS011;56754;51.568;5.048;2023-03-19T00:57:06;3.23;;;1.10;;
69534;SDS011;56754;51.568;5.048;2023-03-19T00:59:32;3.73;;;1.00;;
69534;SDS011;56754;51.568;5.048;2023-03-19T01:01:57;2.72;;;0.90;;
69534;SDS011;56754;51.568;5.048;2023-03-19T01:04:22;3.17;;;0.90;;
69534;SDS011;56754;51.568;5.048;2023-03-19T01:06:48;3.73;;;1.00;;
69534;SDS011;56754;51.568;5.048;2023-03-19T01:09:13;5.43;;;1.00;;
69534;SDS011;56754;51.568;5.048;2023-03-19T01:11:39;3.30;;;0.90;;
69534;SDS011;56754;51.568;5.048;2023-03-19T01:14:04;3.20;;;1.00;;
69534;SDS011;56754;51.568;5.048;2023-03-19T01:16:30;2.93;;;0.90;;
69534;SDS011;56754;51.568;5.048;2023-03-19T01:18:55;3.35;;;1.17;;
69534;SDS011;56754;51.568;5.048;2023-03-19T01:21:21;5.67;;;1.40;;
69534;SDS011;56754;51.568;5.048;2023-03-19T01:23:46;4.60;;;1.00;;
69534;SDS011;56754;51.568;5.048;2023-03-19T01:26:11;3.47;;;1.10;;
69534;SDS011;56754;51.568;5.048;2023-03-19T01:28:37;3.63;;;1.33;;
69534;SDS011;56754;51.568;5.048;2023-03-19T01:31:06;3.72;;;1.10;;
69534;SDS011;56754;51.568;5.048;2023-03-19T01:33:32;3.95;;;1.50;;
69534;SDS011;56754;51.568;5.048;2023-03-19T01:35:58;4.27;;;1.30;;
69534;SDS011;56754;51.568;5.048;2023-03-19T01:38:23;4.33;;;1.30;;
69534;SDS011;56754;51.568;5.048;2023-03-19T01:40:49;3.72;;;1.20;;
69534;SDS011;56754;51.568;5.048;2023-03-19T01:43:16;3.50;;;1.20;;
69534;SDS011;56754;51.568;5.048;2023-03-19T01:45:43;3.80;;;1.30;;
69534;SDS011;56754;51.568;5.048;2023-03-19T01:48:16;8.88;;;1.77;;
69534;SDS011;56754;51.568;5.048;2023-03-19T01:50:45;4.28;;;1.30;;
69534;SDS011;56754;51.568;5.048;2023-03-19T01:53:12;4.05;;;1.30;;
69534;SDS011;56754;51.568;5.048;2023-03-19T01:55:41;3.67;;;1.20;;
69534;SDS011;56754;51.568;5.048;2023-03-19T01:58:06;4.97;;;1.73;;
69534;SDS011;56754;51.568;5.048;2023-03-19T02:00:33;4.07;;;1.25;;
69534;SDS011;56754;51.568;5.048;2023-03-19T02:03:00;4.23;;;1.40;;
69534;SDS011;56754;51.568;5.048;2023-03-19T02:05:26;5.90;;;1.67;;
69534;SDS011;56754;51.568;5.048;2023-03-19T02:07:52;4.93;;;1.90;;
69534;SDS011;56754;51.568;5.048;2023-03-19T02:10:20;4.20;;;1.52;;
69534;SDS011;56754;51.568;5.048;2023-03-19T02:12:46;4.47;;;1.70;;
69534;SDS011;56754;51.568;5.048;2023-03-19T02:15:12;3.70;;;1.50;;
69534;SDS011;56754;51.568;5.048;2023-03-19T02:17:37;4.33;;;1.67;;
69534;SDS011;56754;51.568;5.048;2023-03-19T02:20:11;4.43;;;1.70;;
69534;SDS011;56754;51.568;5.048;2023-03-19T02:22:45;4.93;;;1.70;;
69534;SDS011;56754;51.568;5.048;2023-03-19T02:25:34;4.53;;;1.60;;
69534;SDS011;56754;51.568;5.048;2023-03-19T02:28:06;4.72;;;1.90;;
69534;SDS011;56754;51.568;5.048;2023-03-19T02:30:34;4.30;;;1.85;;
69534;SDS011;56754;51.568;5.048;2023-03-19T02:32:59;4.57;;;1.42;;
69534;SDS011;56754;51.568;5.048;2023-03-19T02:35:25;4.97;;;2.00;;
69534;SDS011;56754;51.568;5.048;2023-03-19T02:37:55;5.93;;;1.85;;
69534;SDS011;56754;51.568;5.048;2023-03-19T02:40:25;4.43;;;1.90;;
69534;SDS011;56754;51.568;5.048;2023-03-19T02:42:54;5.00;;;2.13;;
69534;SDS011;56754;51.568;5.048;2023-03-19T02:45:19;4.20;;;1.67;;
69534;SDS011;56754;51.568;5.048;2023-03-19T02:47:45;5.82;;;2.20;;
69534;SDS011;56754;51.568;5.048;2023-03-19T02:50:10;6.83;;;1.90;;
69534;SDS011;56754;51.568;5.048;2023-03-19T02:52:36;5.27;;;2.00;;
69534;SDS011;56754;51.568;5.048;2023-03-19T02:55:01;4.57;;;2.17;;
69534;SDS011;56754;51.568;5.048;2023-03-19T02:57:26;4.97;;;2.17;;
69534;SDS011;56754;51.568;5.048;2023-03-19T02:59:52;5.00;;;1.90;;
69534;SDS011;56754;51.568;5.048;2023-03-19T03:02:17;5.37;;;2.17;;
69534;SDS011;56754;51.568;5.048;2023-03-19T03:04:43;3.95;;;1.88;;
69534;SDS011;56754;51.568;5.048;2023-03-19T03:07:08;5.20;;;2.30;;
69534;SDS011;56754;51.568;5.048;2023-03-19T03:09:34;5.27;;;2.43;;
69534;SDS011;56754;51.568;5.048;2023-03-19T03:11:59;5.93;;;2.27;;
69534;SDS011;56754;51.568;5.048;2023-03-19T03:14:24;6.23;;;2.70;;
69534;SDS011;56754;51.568;5.048;2023-03-19T03:16:49;5.43;;;2.83;;
69534;SDS011;56754;51.568;5.048;2023-03-19T03:19:15;5.72;;;2.42;;
69534;SDS011;56754;51.568;5.048;2023-03-19T03:21:40;5.97;;;2.50;;
69534;SDS011;56754;51.568;5.048;2023-03-19T03:24:06;5.07;;;2.30;;
69534;SDS011;56754;51.568;5.048;2023-03-19T03:26:31;7.13;;;2.85;;
69534;SDS011;56754;51.568;5.048;2023-03-19T03:28:57;5.40;;;2.37;;
69534;SDS011;56754;51.568;5.048;2023-03-19T03:31:22;4.80;;;2.37;;
69534;SDS011;56754;51.568;5.048;2023-03-19T03:33:47;5.57;;;2.70;;
69534;SDS011;56754;51.568;5.048;2023-03-19T03:36:13;5.57;;;3.00;;
69534;SDS011;56754;51.568;5.048;2023-03-19T03:38:39;5.13;;;2.37;;
69534;SDS011;56754;51.568;5.048;2023-03-19T03:41:04;5.37;;;2.53;;
69534;SDS011;56754;51.568;5.048;2023-03-19T03:43:29;5.70;;;2.60;;
69534;SDS011;56754;51.568;5.048;2023-03-19T03:45:55;5.93;;;2.57;;
69534;SDS011;56754;51.568;5.048;2023-03-19T03:48:20;5.57;;;2.83;;
69534;SDS011;56754;51.568;5.048;2023-03-19T03:50:46;5.33;;;2.80;;
69534;SDS011;56754;51.568;5.048;2023-03-19T03:53:11;6.07;;;2.67;;
69534;SDS011;56754;51.568;5.048;2023-03-19T03:55:36;6.18;;;2.70;;
69534;SDS011;56754;51.568;5.048;2023-03-19T03:58:02;5.73;;;2.63;;
69534;SDS011;56754;51.568;5.048;2023-03-19T04:00:27;5.13;;;2.87;;
69534;SDS011;56754;51.568;5.048;2023-03-19T04:02:53;5.00;;;2.63;;
69534;SDS011;56754;51.568;5.048;2023-03-19T04:05:18;6.18;;;2.80;;
69534;SDS011;56754;51.568;5.048;2023-03-19T04:07:43;6.40;;;2.73;;
69534;SDS011;56754;51.568;5.048;2023-03-19T04:10:09;6.50;;;3.13;;
69534;SDS011;56754;51.568;5.048;2023-03-19T04:12:38;5.85;;;2.88;;
69534;SDS011;56754;51.568;5.048;2023-03-19T04:15:04;5.40;;;2.67;;
69534;SDS011;56754;51.568;5.048;2023-03-19T04:17:32;6.18;;;3.03;;
69534;SDS011;56754;51.568;5.048;2023-03-19T04:19:57;5.67;;;2.67;;
69534;SDS011;56754;51.568;5.048;2023-03-19T04:22:22;5.40;;;2.60;;
69534;SDS011;56754;51.568;5.048;2023-03-19T04:24:48;6.30;;;3.17;;
69534;SDS011;56754;51.568;5.048;2023-03-19T04:27:13;6.40;;;2.70;;
69534;SDS011;56754;51.568;5.048;2023-03-19T04:29:39;10.07;;;3.43;;
69534;SDS011;56754;51.568;5.048;2023-03-19T04:32:04;5.10;;;2.80;;
69534;SDS011;56754;51.568;5.048;2023-03-19T04:34:30;6.10;;;3.00;;
69534;SDS011;56754;51.568;5.048;2023-03-19T04:36:55;6.53;;;3.00;;
69534;SDS011;56754;51.568;5.048;2023-03-19T04:39:21;5.83;;;3.03;;
69534;SDS011;56754;51.568;5.048;2023-03-19T04:41:46;6.80;;;3.07;;
69534;SDS011;56754;51.568;5.048;2023-03-19T04:44:12;6.60;;;3.10;;
69534;SDS011;56754;51.568;5.048;2023-03-19T04:46:37;6.73;;;3.50;;
69534;SDS011;56754;51.568;5.048;2023-03-19T04:49:03;5.30;;;2.70;;
69534;SDS011;56754;51.568;5.048;2023-03-19T04:51:28;6.70;;;3.40;;
69534;SDS011;56754;51.568;5.048;2023-03-19T04:53:53;6.60;;;3.47;;
69534;SDS011;56754;51.568;5.048;2023-03-19T04:56:18;6.77;;;3.53;;
69534;SDS011;56754;51.568;5.048;2023-03-19T04:58:44;6.17;;;3.13;;
69534;SDS011;56754;51.568;5.048;2023-03-19T05:01:09;6.20;;;3.60;;
69534;SDS011;56754;51.568;5.048;2023-03-19T05:03:35;6.40;;;3.13;;
69534;SDS011;56754;51.568;5.048;2023-03-19T05:06:00;6.37;;;3.10;;
69534;SDS011;56754;51.568;5.048;2023-03-19T05:08:25;6.07;;;3.10;;
69534;SDS011;56754;51.568;5.048;2023-03-19T05:10:51;7.10;;;3.30;;
69534;SDS011;56754;51.568;5.048;2023-03-19T05:13:16;6.30;;;3.13;;
69534;SDS011;56754;51.568;5.048;2023-03-19T05:15:42;7.13;;;3.33;;
69534;SDS011;56754;51.568;5.048;2023-03-19T05:18:08;6.32;;;2.75;;
69534;SDS011;56754;51.568;5.048;2023-03-19T05:20:34;7.07;;;3.25;;
69534;SDS011;56754;51.568;5.048;2023-03-19T05:22:59;5.43;;;3.00;;
69534;SDS011;56754;51.568;5.048;2023-03-19T05:25:25;6.33;;;3.37;;
69534;SDS011;56754;51.568;5.048;2023-03-19T05:27:50;6.20;;;3.37;;
69534;SDS011;56754;51.568;5.048;2023-03-19T05:30:15;6.07;;;3.23;;
69534;SDS011;56754;51.568;5.048;2023-03-19T05:32:40;6.57;;;3.20;;
69534;SDS011;56754;51.568;5.048;2023-03-19T05:35:06;6.22;;;3.40;;
69534;SDS011;56754;51.568;5.048;2023-03-19T05:37:32;6.80;;;3.08;;
69534;SDS011;56754;51.568;5.048;2023-03-19T05:39:57;6.63;;;2.97;;
69534;SDS011;56754;51.568;5.048;2023-03-19T05:42:23;8.03;;;3.43;;
69534;SDS011;56754;51.568;5.048;2023-03-19T05:44:48;6.43;;;2.80;;
69534;SDS011;56754;51.568;5.048;2023-03-19T05:47:13;6.50;;;3.00;;
69534;SDS011;56754;51.568;5.048;2023-03-19T05:49:39;7.27;;;2.83;;
69534;SDS011;56754;51.568;5.048;2023-03-19T05:52:04;7.67;;;3.10;;
69534;SDS011;56754;51.568;5.048;2023-03-19T05:54:48;5.82;;;2.90;;
69534;SDS011;56754;51.568;5.048;2023-03-19T05:57:13;5.60;;;2.90;;
69534;SDS011;56754;51.568;5.048;2023-03-19T05:59:39;6.57;;;3.10;;
69534;SDS011;56754;51.568;5.048;2023-03-19T06:02:05;7.60;;;3.33;;
69534;SDS011;56754;51.568;5.048;2023-03-19T06:04:31;5.78;;;3.03;;
69534;SDS011;56754;51.568;5.048;2023-03-19T06:06:57;6.17;;;2.87;;
69534;SDS011;56754;51.568;5.048;2023-03-19T06:09:22;5.60;;;2.67;;
69534;SDS011;56754;51.568;5.048;2023-03-19T06:11:48;6.65;;;3.28;;
69534;SDS011;56754;51.568;5.048;2023-03-19T06:14:13;6.00;;;3.10;;
69534;SDS011;56754;51.568;5.048;2023-03-19T06:16:38;7.03;;;3.17;;
69534;SDS011;56754;51.568;5.048;2023-03-19T06:19:04;5.73;;;3.07;;
69534;SDS011;56754;51.568;5.048;2023-03-19T06:21:29;6.53;;;2.90;;
69534;SDS011;56754;51.568;5.048;2023-03-19T06:23:57;6.18;;;3.22;;
69534;SDS011;56754;51.568;5.048;2023-03-19T06:26:23;7.23;;;3.30;;
69534;SDS011;56754;51.568;5.048;2023-03-19T06:28:50;5.53;;;2.90;;
69534;SDS011;56754;51.568;5.048;2023-03-19T06:31:16;6.07;;;3.30;;
69534;SDS011;56754;51.568;5.048;2023-03-19T06:33:41;7.00;;;2.90;;
69534;SDS011;56754;51.568;5.048;2023-03-19T06:36:07;6.77;;;3.17;;
69534;SDS011;56754;51.568;5.048;2023-03-19T06:38:33;7.15;;;2.70;;
69534;SDS011;56754;51.568;5.048;2023-03-19T06:40:58;6.43;;;2.60;;
69534;SDS011;56754;51.568;5.048;2023-03-19T06:43:23;7.23;;;2.73;;
69534;SDS011;56754;51.568;5.048;2023-03-19T06:45:49;7.60;;;2.53;;
69534;SDS011;56754;51.568;5.048;2023-03-19T06:48:14;7.13;;;2.60;;
69534;SDS011;56754;51.568;5.048;2023-03-19T06:50:40;6.00;;;2.70;;
69534;SDS011;56754;51.568;5.048;2023-03-19T06:53:05;5.63;;;2.53;;
69534;SDS011;56754;51.568;5.048;2023-03-19T06:55:31;6.28;;;2.80;;
69534;SDS011;56754;51.568;5.048;2023-03-19T06:57:56;5.10;;;2.27;;
69534;SDS011;56754;51.568;5.048;2023-03-19T07:00:22;5.73;;;2.60;;
69534;SDS011;56754;51.568;5.048;2023-03-19T07:02:47;6.67;;;2.63;;
69534;SDS011;56754;51.568;5.048;2023-03-19T07:05:13;5.57;;;2.23;;
69534;SDS011;56754;51.568;5.048;2023-03-19T07:07:39;8.10;;;2.50;;
69534;SDS011;56754;51.568;5.048;2023-03-19T07:10:04;5.90;;;2.60;;
69534;SDS011;56754;51.568;5.048;2023-03-19T07:12:30;7.20;;;2.38;;
69534;SDS011;56754;51.568;5.048;2023-03-19T07:14:56;4.97;;;2.23;;
69534;SDS011;56754;51.568;5.048;2023-03-19T07:17:21;5.83;;;2.27;;
69534;SDS011;56754;51.568;5.048;2023-03-19T07:19:48;7.70;;;2.50;;
69534;SDS011;56754;51.568;5.048;2023-03-19T07:22:13;5.87;;;2.37;;
69534;SDS011;56754;51.568;5.048;2023-03-19T07:24:39;5.77;;;2.20;;
69534;SDS011;56754;51.568;5.048;2023-03-19T07:27:04;8.07;;;2.50;;
69534;SDS011;56754;51.568;5.048;2023-03-19T07:29:30;6.47;;;2.20;;
69534;SDS011;56754;51.568;5.048;2023-03-19T07:31:55;5.47;;;2.10;;
69534;SDS011;56754;51.568;5.048;2023-03-19T07:34:20;5.43;;;1.90;;
69534;SDS011;56754;51.568;5.048;2023-03-19T07:36:46;7.25;;;2.20;;
69534;SDS011;56754;51.568;5.048;2023-03-19T07:39:11;8.63;;;2.17;;
69534;SDS011;56754;51.568;5.048;2023-03-19T07:41:36;6.67;;;2.20;;
69534;SDS011;56754;51.568;5.048;2023-03-19T07:44:02;5.47;;;2.07;;
69534;SDS011;56754;51.568;5.048;2023-03-19T07:46:27;9.23;;;2.50;;
69534;SDS011;56754;51.568;5.048;2023-03-19T07:48:52;7.53;;;2.30;;
69534;SDS011;56754;51.568;5.048;2023-03-19T07:51:18;9.37;;;2.23;;
69534;SDS011;56754;51.568;5.048;2023-03-19T07:53:43;6.50;;;2.03;;
69534;SDS011;56754;51.568;5.048;2023-03-19T07:56:08;12.60;;;2.53;;
69534;SDS011;56754;51.568;5.048;2023-03-19T07:58:34;5.10;;;2.00;;
69534;SDS011;56754;51.568;5.048;2023-03-19T08:01:01;6.20;;;2.50;;
69534;SDS011;56754;51.568;5.048;2023-03-19T08:03:26;9.00;;;2.70;;
69534;SDS011;56754;51.568;5.048;2023-03-19T08:05:51;8.47;;;3.23;;
69534;SDS011;56754;51.568;5.048;2023-03-19T08:08:17;10.68;;;2.90;;
69534;SDS011;56754;51.568;5.048;2023-03-19T08:10:42;12.97;;;4.37;;
69534;SDS011;56754;51.568;5.048;2023-03-19T08:13:08;13.37;;;4.87;;
69534;SDS011;56754;51.568;5.048;2023-03-19T08:15:33;12.10;;;4.97;;
69534;SDS011;56754;51.568;5.048;2023-03-19T08:17:59;11.98;;;5.20;;
69534;SDS011;56754;51.568;5.048;2023-03-19T08:20:25;13.73;;;6.45;;
69534;SDS011;56754;51.568;5.048;2023-03-19T08:22:50;14.50;;;6.77;;
69534;SDS011;56754;51.568;5.048;2023-03-19T08:25:16;12.47;;;6.83;;
69534;SDS011;56754;51.568;5.048;2023-03-19T08:27:41;14.48;;;6.80;;
69534;SDS011;56754;51.568;5.048;2023-03-19T08:30:07;15.17;;;6.33;;
69534;SDS011;56754;51.568;5.048;2023-03-19T08:32:34;13.68;;;6.03;;
69534;SDS011;56754;51.568;5.048;2023-03-19T08:35:00;12.15;;;6.53;;
69534;SDS011;56754;51.568;5.048;2023-03-19T08:37:25;14.90;;;6.83;;
69534;SDS011;56754;51.568;5.048;2023-03-19T08:39:51;14.30;;;6.53;;
69534;SDS011;56754;51.568;5.048;2023-03-19T08:42:16;14.97;;;6.53;;
69534;SDS011;56754;51.568;5.048;2023-03-19T08:44:43;13.43;;;6.40;;
69534;SDS011;56754;51.568;5.048;2023-03-19T08:47:08;12.40;;;5.87;;
69534;SDS011;56754;51.568;5.048;2023-03-19T08:49:34;14.90;;;6.72;;
69534;SDS011;56754;51.568;5.048;2023-03-19T08:51:59;14.77;;;6.23;;
69534;SDS011;56754;51.568;5.048;2023-03-19T08:54:28;16.43;;;6.80;;
69534;SDS011;56754;51.568;5.048;2023-03-19T08:56:56;13.05;;;6.00;;
69534;SDS011;56754;51.568;5.048;2023-03-19T08:59:23;13.52;;;5.95;;
69534;SDS011;56754;51.568;5.048;2023-03-19T09:01:52;11.07;;;5.30;;
69534;SDS011;56754;51.568;5.048;2023-03-19T09:04:18;12.35;;;5.78;;
69534;SDS011;56754;51.568;5.048;2023-03-19T09:06:44;11.38;;;5.40;;
69534;SDS011;56754;51.568;5.048;2023-03-19T09:09:10;11.20;;;5.20;;
69534;SDS011;56754;51.568;5.048;2023-03-19T09:11:35;11.40;;;5.33;;
69534;SDS011;56754;51.568;5.048;2023-03-19T09:14:01;12.70;;;5.30;;
69534;SDS011;56754;51.568;5.048;2023-03-19T09:16:26;15.45;;;6.20;;
69534;SDS011;56754;51.568;5.048;2023-03-19T09:18:52;13.00;;;6.17;;
69534;SDS011;56754;51.568;5.048;2023-03-19T09:21:17;14.10;;;6.70;;
69534;SDS011;56754;51.568;5.048;2023-03-19T09:23:42;16.00;;;7.13;;
69534;SDS011;56754;51.568;5.048;2023-03-19T09:26:08;19.67;;;8.33;;
69534;SDS011;56754;51.568;5.048;2023-03-19T09:28:34;13.83;;;7.20;;
69534;SDS011;56754;51.568;5.048;2023-03-19T09:30:59;17.35;;;7.78;;
69534;SDS011;56754;51.568;5.048;2023-03-19T09:33:25;14.57;;;8.10;;
69534;SDS011;56754;51.568;5.048;2023-03-19T09:35:51;15.93;;;8.40;;
69534;SDS011;56754;51.568;5.048;2023-03-19T09:38:18;15.98;;;7.30;;
69534;SDS011;56754;51.568;5.048;2023-03-19T09:40:48;16.02;;;7.55;;
69534;SDS011;56754;51.568;5.048;2023-03-19T09:46:02;16.65;;;8.20;;
69534;SDS011;56754;51.568;5.048;2023-03-19T09:48:40;15.27;;;8.43;;
69534;SDS011;56754;51.568;5.048;2023-03-19T09:51:11;14.75;;;7.90;;
69534;SDS011;56754;51.568;5.048;2023-03-19T09:53:44;15.93;;;8.55;;
69534;SDS011;56754;51.568;5.048;2023-03-19T09:56:16;13.70;;;8.25;;
69534;SDS011;56754;51.568;5.048;2023-03-19T09:58:42;13.63;;;8.17;;
69534;SDS011;56754;51.568;5.048;2023-03-19T10:01:10;13.90;;;7.40;;
69534;SDS011;56754;51.568;5.048;2023-03-19T10:11:53;13.90;;;7.47;;
69534;SDS011;56754;51.568;5.048;2023-03-19T10:17:09;11.93;;;6.33;;
69534;SDS011;56754;51.568;5.048;2023-03-19T10:19:45;12.07;;;6.25;;
69534;SDS011;56754;51.568;5.048;2023-03-19T10:22:16;11.05;;;7.10;;
69534;SDS011;56754;51.568;5.048;2023-03-19T10:24:45;10.30;;;5.53;;
69534;SDS011;56754;51.568;5.048;2023-03-19T10:27:18;14.07;;;7.55;;
69534;SDS011;56754;51.568;5.048;2023-03-19T10:29:45;10.50;;;5.90;;
69534;SDS011;56754;51.568;5.048;2023-03-19T10:34:57;12.40;;;7.73;;
69534;SDS011;56754;51.568;5.048;2023-03-19T10:37:30;15.38;;;9.65;;
69534;SDS011;56754;51.568;5.048;2023-03-19T10:39:59;16.43;;;9.17;;
69534;SDS011;56754;51.568;5.048;2023-03-19T10:47:43;18.60;;;11.70;;
69534;SDS011;56754;51.568;5.048;2023-03-19T10:50:16;12.77;;;7.50;;
69534;SDS011;56754;51.568;5.048;2023-03-19T10:52:43;15.48;;;9.15;;
69534;SDS011;56754;51.568;5.048;2023-03-19T10:55:15;18.13;;;10.20;;
69534;SDS011;56754;51.568;5.048;2023-03-19T10:57:42;17.23;;;11.32;;
69534;SDS011;56754;51.568;5.048;2023-03-19T11:00:14;17.17;;;8.57;;
69534;SDS011;56754;51.568;5.048;2023-03-19T11:02:43;15.82;;;10.65;;
69534;SDS011;56754;51.568;5.048;2023-03-19T11:07:37;13.33;;;7.70;;
69534;SDS011;56754;51.568;5.048;2023-03-19T11:10:03;16.48;;;8.80;;
69534;SDS011;56754;51.568;5.048;2023-03-19T11:12:36;17.15;;;10.80;;
69534;SDS011;56754;51.568;5.048;2023-03-19T11:15:01;15.37;;;9.70;;
69534;SDS011;56754;51.568;5.048;2023-03-19T11:17:56;18.27;;;10.55;;
69534;SDS011;56754;51.568;5.048;2023-03-19T11:22:56;14.57;;;8.52;;
69534;SDS011;56754;51.568;5.048;2023-03-19T11:27:56;19.63;;;10.93;;
69534;SDS011;56754;51.568;5.048;2023-03-19T11:30:27;18.63;;;11.95;;
69534;SDS011;56754;51.568;5.048;2023-03-19T11:41:29;17.73;;;10.70;;
69534;SDS011;56754;51.568;5.048;2023-03-19T11:44:34;13.70;;;7.47;;
69534;SDS011;56754;51.568;5.048;2023-03-19T11:50:00;12.55;;;7.35;;
69534;SDS011;56754;51.568;5.048;2023-03-19T11:55:42;14.93;;;9.07;;
69534;SDS011;56754;51.568;5.048;2023-03-19T12:00:52;15.88;;;9.18;;
69534;SDS011;56754;51.568;5.048;2023-03-19T12:15:04;13.55;;;8.75;;
69534;SDS011;56754;51.568;5.048;2023-03-19T12:20:49;17.45;;;10.52;;
69534;SDS011;56754;51.568;5.048;2023-03-19T12:23:39;13.63;;;8.40;;
69534;SDS011;56754;51.568;5.048;2023-03-19T12:26:27;17.38;;;11.65;;
69534;SDS011;56754;51.568;5.048;2023-03-19T12:29:02;14.45;;;8.73;;
69534;SDS011;56754;51.568;5.048;2023-03-19T12:34:38;20.08;;;11.05;;
69534;SDS011;56754;51.568;5.048;2023-03-19T12:39:43;13.05;;;9.20;;
69534;SDS011;56754;51.568;5.048;2023-03-19T12:42:17;18.98;;;10.48;;
69534;SDS011;56754;51.568;5.048;2023-03-19T12:44:46;12.63;;;8.02;;
69534;SDS011;56754;51.568;5.048;2023-03-19T12:47:23;16.13;;;8.80;;
69534;SDS011;56754;51.568;5.048;2023-03-19T12:57:47;11.70;;;7.28;;
69534;SDS011;56754;51.568;5.048;2023-03-19T13:00:48;11.75;;;7.60;;
69534;SDS011;56754;51.568;5.048;2023-03-19T13:03:22;12.53;;;7.47;;
69534;SDS011;56754;51.568;5.048;2023-03-19T13:14:25;10.20;;;6.80;;
69534;SDS011;56754;51.568;5.048;2023-03-19T13:19:46;9.75;;;6.65;;
69534;SDS011;56754;51.568;5.048;2023-03-19T13:22:15;10.73;;;6.70;;
69534;SDS011;56754;51.568;5.048;2023-03-19T13:24:45;10.23;;;6.60;;
69534;SDS011;56754;51.568;5.048;2023-03-19T13:27:16;10.65;;;7.13;;
69534;SDS011;56754;51.568;5.048;2023-03-19T13:32:34;9.30;;;5.90;;
69534;SDS011;56754;51.568;5.048;2023-03-19T13:38:00;9.70;;;6.30;;
69534;SDS011;56754;51.568;5.048;2023-03-19T13:45:45;9.63;;;6.25;;
69534;SDS011;56754;51.568;5.048;2023-03-19T13:49:02;10.05;;;6.82;;
69534;SDS011;56754;51.568;5.048;2023-03-19T13:56:31;14.23;;;6.93;;
69534;SDS011;56754;51.568;5.048;2023-03-19T14:01:42;10.85;;;6.53;;
69534;SDS011;56754;51.568;5.048;2023-03-19T14:04:16;10.05;;;6.25;;
69534;SDS011;56754;51.568;5.048;2023-03-19T14:06:54;10.50;;;6.40;;
69534;SDS011;56754;51.568;5.048;2023-03-19T14:12:22;10.77;;;6.88;;
69534;SDS011;56754;51.568;5.048;2023-03-19T14:14:57;13.93;;;7.10;;
69534;SDS011;56754;51.568;5.048;2023-03-19T14:17:28;10.82;;;6.18;;
69534;SDS011;56754;51.568;5.048;2023-03-19T14:19:59;9.88;;;6.28;;
69534;SDS011;56754;51.568;5.048;2023-03-19T14:22:37;10.07;;;6.40;;
69534;SDS011;56754;51.568;5.048;2023-03-19T14:27:44;10.75;;;6.50;;
69534;SDS011;56754;51.568;5.048;2023-03-19T14:30:32;10.32;;;6.10;;
69534;SDS011;56754;51.568;5.048;2023-03-19T14:33:04;10.35;;;6.57;;
69534;SDS011;56754;51.568;5.048;2023-03-19T14:35:40;8.33;;;6.03;;
69534;SDS011;56754;51.568;5.048;2023-03-19T14:38:10;10.10;;;6.45;;
69534;SDS011;56754;51.568;5.048;2023-03-19T14:40:43;9.95;;;6.78;;
69534;SDS011;56754;51.568;5.048;2023-03-19T14:43:22;9.23;;;5.80;;
69534;SDS011;56754;51.568;5.048;2023-03-19T14:46:00;10.10;;;6.18;;
69534;SDS011;56754;51.568;5.048;2023-03-19T14:56:43;9.65;;;5.85;;
69534;SDS011;56754;51.568;5.048;2023-03-19T14:59:11;10.02;;;6.07;;
69534;SDS011;56754;51.568;5.048;2023-03-19T15:01:38;10.57;;;6.13;;
69534;SDS011;56754;51.568;5.048;2023-03-19T15:04:06;8.85;;;5.45;;
69534;SDS011;56754;51.568;5.048;2023-03-19T15:06:38;9.07;;;6.07;;
69534;SDS011;56754;51.568;5.048;2023-03-19T15:09:47;9.43;;;5.95;;
69534;SDS011;56754;51.568;5.048;2023-03-19T15:19:47;9.65;;;5.88;;
69534;SDS011;56754;51.568;5.048;2023-03-19T15:22:14;9.60;;;5.50;;
69534;SDS011;56754;51.568;5.048;2023-03-19T15:24:49;10.37;;;5.90;;
69534;SDS011;56754;51.568;5.048;2023-03-19T15:27:23;10.57;;;6.00;;
69534;SDS011;56754;51.568;5.048;2023-03-19T15:29:50;10.50;;;5.67;;
69534;SDS011;56754;51.568;5.048;2023-03-19T15:32:33;11.18;;;6.07;;
69534;SDS011;56754;51.568;5.048;2023-03-19T15:35:03;9.10;;;5.75;;
69534;SDS011;56754;51.568;5.048;2023-03-19T15:37:29;9.95;;;5.90;;
69534;SDS011;56754;51.568;5.048;2023-03-19T15:40:00;9.88;;;5.90;;
69534;SDS011;56754;51.568;5.048;2023-03-19T15:42:30;9.53;;;5.13;;
69534;SDS011;56754;51.568;5.048;2023-03-19T15:44:57;9.48;;;5.57;;
69534;SDS011;56754;51.568;5.048;2023-03-19T15:47:30;8.70;;;5.45;;
69534;SDS011;56754;51.568;5.048;2023-03-19T15:49:58;8.30;;;5.20;;
69534;SDS011;56754;51.568;5.048;2023-03-19T15:52:32;8.13;;;4.78;;
69534;SDS011;56754;51.568;5.048;2023-03-19T15:55:02;9.33;;;4.80;;
69534;SDS011;56754;51.568;5.048;2023-03-19T15:57:28;8.95;;;4.88;;
69534;SDS011;56754;51.568;5.048;2023-03-19T15:59:54;8.05;;;4.47;;
69534;SDS011;56754;51.568;5.048;2023-03-19T16:02:30;7.93;;;5.05;;
69534;SDS011;56754;51.568;5.048;2023-03-19T16:04:57;8.70;;;4.78;;
69534;SDS011;56754;51.568;5.048;2023-03-19T16:09:55;9.38;;;4.55;;
69534;SDS011;56754;51.568;5.048;2023-03-19T16:12:37;9.63;;;4.53;;
69534;SDS011;56754;51.568;5.048;2023-03-19T16:21:23;8.32;;;4.60;;
69534;SDS011;56754;51.568;5.048;2023-03-19T16:23:33;7.50;;;4.40;;
69534;SDS011;56754;51.568;5.048;2023-03-19T16:26:16;7.20;;;4.30;;
69534;SDS011;56754;51.568;5.048;2023-03-19T16:28:47;8.65;;;4.65;;
69534;SDS011;56754;51.568;5.048;2023-03-19T16:31:22;7.15;;;4.28;;
69534;SDS011;56754;51.568;5.048;2023-03-19T16:33:49;7.75;;;4.00;;
69534;SDS011;56754;51.568;5.048;2023-03-19T16:36:16;8.07;;;3.97;;
69534;SDS011;56754;51.568;5.048;2023-03-19T16:38:43;6.87;;;3.87;;
69534;SDS011;56754;51.568;5.048;2023-03-19T16:41:28;6.78;;;3.80;;
69534;SDS011;56754;51.568;5.048;2023-03-19T16:43:54;7.60;;;3.40;;
69534;SDS011;56754;51.568;5.048;2023-03-19T16:46:24;6.88;;;3.97;;
69534;SDS011;56754;51.568;5.048;2023-03-19T16:48:50;6.93;;;3.70;;
69534;SDS011;56754;51.568;5.048;2023-03-19T16:51:16;8.33;;;3.70;;
69534;SDS011;56754;51.568;5.048;2023-03-19T16:53:43;7.63;;;3.40;;
69534;SDS011;56754;51.568;5.048;2023-03-19T16:56:11;7.80;;;3.50;;
69534;SDS011;56754;51.568;5.048;2023-03-19T16:58:39;7.82;;;4.03;;
69534;SDS011;56754;51.568;5.048;2023-03-19T17:01:17;7.05;;;3.53;;
69534;SDS011;56754;51.568;5.048;2023-03-19T17:03:46;5.03;;;2.60;;